sensor_id;sensor_type;location;lat;lon;timestamp;temperature;humidity
46752;DHT22;32497;48.936;9.270;2022-07-21T00:01:33;19.00;92.50
46752;DHT22;32497;48.936;9.270;2022-07-21T00:06:34;19.00;92.10
46752;DHT22;32497;48.936;9.270;2022-07-21T00:11:36;18.90;91.90
46752;DHT22;32497;48.936;9.270;2022-07-21T00:16:39;19.10;92.60
46752;DHT22;32497;48.936;9.270;2022-07-21T00:21:40;19.20;92.10
46752;DHT22;32497;48.936;9.270;2022-07-21T00:26:41;19.30;91.60
46752;DHT22;32497;48.936;9.270;2022-07-21T00:31:43;19.40;91.60
46752;DHT22;32497;48.936;9.270;2022-07-21T00:36:44;19.30;91.40
46752;DHT22;32497;48.936;9.270;2022-07-21T00:41:45;19.40;91.70
46752;DHT22;32497;48.936;9.270;2022-07-21T00:46:47;19.20;91.30
46752;DHT22;32497;48.936;9.270;2022-07-21T00:51:49;19.30;91.70
46752;DHT22;32497;48.936;9.270;2022-07-21T00:56:50;19.40;91.60
46752;DHT22;32497;48.936;9.270;2022-07-21T01:01:52;19.50;91.70
46752;DHT22;32497;48.936;9.270;2022-07-21T01:06:53;19.50;91.90
46752;DHT22;32497;48.936;9.270;2022-07-21T01:11:55;19.70;92.00
46752;DHT22;32497;48.936;9.270;2022-07-21T01:16:58;19.70;91.70
46752;DHT22;32497;48.936;9.270;2022-07-21T01:22:02;19.60;90.90
46752;DHT22;32497;48.936;9.270;2022-07-21T01:27:03;19.50;91.20
46752;DHT22;32497;48.936;9.270;2022-07-21T01:32:05;19.50;91.50
46752;DHT22;32497;48.936;9.270;2022-07-21T01:37:07;19.60;91.10
46752;DHT22;32497;48.936;9.270;2022-07-21T01:42:08;19.60;91.50
46752;DHT22;32497;48.936;9.270;2022-07-21T01:47:09;19.50;91.00
46752;DHT22;32497;48.936;9.270;2022-07-21T01:52:11;19.50;90.70
46752;DHT22;32497;48.936;9.270;2022-07-21T01:57:12;19.30;90.90
46752;DHT22;32497;48.936;9.270;2022-07-21T02:02:14;19.30;91.40
46752;DHT22;32497;48.936;9.270;2022-07-21T02:07:16;19.40;91.60
46752;DHT22;32497;48.936;9.270;2022-07-21T02:12:17;19.40;91.20
46752;DHT22;32497;48.936;9.270;2022-07-21T02:17:18;19.30;91.00
46752;DHT22;32497;48.936;9.270;2022-07-21T02:22:20;19.10;91.00
46752;DHT22;32497;48.936;9.270;2022-07-21T02:27:21;19.20;92.10
46752;DHT22;32497;48.936;9.270;2022-07-21T02:32:22;19.50;92.30
46752;DHT22;32497;48.936;9.270;2022-07-21T02:37:25;19.50;92.20
46752;DHT22;32497;48.936;9.270;2022-07-21T02:42:26;19.50;92.20
46752;DHT22;32497;48.936;9.270;2022-07-21T02:47:27;19.40;92.20
46752;DHT22;32497;48.936;9.270;2022-07-21T02:52:29;19.70;92.30
46752;DHT22;32497;48.936;9.270;2022-07-21T02:57:30;19.80;92.10
46752;DHT22;32497;48.936;9.270;2022-07-21T03:02:31;19.80;92.00
46752;DHT22;32497;48.936;9.270;2022-07-21T03:07:34;19.70;92.10
46752;DHT22;32497;48.936;9.270;2022-07-21T03:12:35;19.70;92.10
46752;DHT22;32497;48.936;9.270;2022-07-21T03:17:36;19.70;92.80
46752;DHT22;32497;48.936;9.270;2022-07-21T03:22:38;19.70;92.50
46752;DHT22;32497;48.936;9.270;2022-07-21T03:27:39;19.70;92.70
46752;DHT22;32497;48.936;9.270;2022-07-21T03:32:40;19.70;92.70
46752;DHT22;32497;48.936;9.270;2022-07-21T03:37:44;19.70;92.50
46752;DHT22;32497;48.936;9.270;2022-07-21T03:42:45;19.70;92.60
46752;DHT22;32497;48.936;9.270;2022-07-21T03:47:46;19.70;92.40
46752;DHT22;32497;48.936;9.270;2022-07-21T03:52:48;19.70;92.20
46752;DHT22;32497;48.936;9.270;2022-07-21T03:57:52;19.70;92.00
46752;DHT22;32497;48.936;9.270;2022-07-21T04:02:54;19.70;92.00
46752;DHT22;32497;48.936;9.270;2022-07-21T04:07:56;19.70;91.70
46752;DHT22;32497;48.936;9.270;2022-07-21T04:13:00;19.60;91.60
46752;DHT22;32497;48.936;9.270;2022-07-21T04:18:02;19.70;91.80
46752;DHT22;32497;48.936;9.270;2022-07-21T04:23:05;19.70;91.00
46752;DHT22;32497;48.936;9.270;2022-07-21T04:28:06;19.60;91.70
46752;DHT22;32497;48.936;9.270;2022-07-21T04:33:07;19.60;91.50
46752;DHT22;32497;48.936;9.270;2022-07-21T04:38:10;19.60;91.00
46752;DHT22;32497;48.936;9.270;2022-07-21T04:43:18;19.70;91.20
46752;DHT22;32497;48.936;9.270;2022-07-21T04:48:22;19.70;91.30
46752;DHT22;32497;48.936;9.270;2022-07-21T04:53:24;19.50;90.60
46752;DHT22;32497;48.936;9.270;2022-07-21T04:58:25;19.60;91.30
46752;DHT22;32497;48.936;9.270;2022-07-21T05:03:26;19.50;90.40
46752;DHT22;32497;48.936;9.270;2022-07-21T05:08:29;19.30;91.00
46752;DHT22;32497;48.936;9.270;2022-07-21T05:13:30;19.30;90.70
46752;DHT22;32497;48.936;9.270;2022-07-21T05:18:31;19.40;90.70
46752;DHT22;32497;48.936;9.270;2022-07-21T05:23:34;19.50;90.30
46752;DHT22;32497;48.936;9.270;2022-07-21T05:28:35;19.50;90.70
46752;DHT22;32497;48.936;9.270;2022-07-21T05:33:36;19.60;90.30
46752;DHT22;32497;48.936;9.270;2022-07-21T05:38:38;19.80;89.70
46752;DHT22;32497;48.936;9.270;2022-07-21T05:43:39;19.90;88.30
46752;DHT22;32497;48.936;9.270;2022-07-21T05:48:40;20.20;89.00
46752;DHT22;32497;48.936;9.270;2022-07-21T05:53:43;20.40;88.60
46752;DHT22;32497;48.936;9.270;2022-07-21T05:58:44;20.50;88.20
46752;DHT22;32497;48.936;9.270;2022-07-21T06:03:47;20.80;87.80
46752;DHT22;32497;48.936;9.270;2022-07-21T06:08:50;20.60;84.50
46752;DHT22;32497;48.936;9.270;2022-07-21T06:13:51;20.40;87.50
46752;DHT22;32497;48.936;9.270;2022-07-21T06:18:52;20.50;87.80
46752;DHT22;32497;48.936;9.270;2022-07-21T06:23:54;20.50;87.90
46752;DHT22;32497;48.936;9.270;2022-07-21T06:28:55;20.70;85.40
46752;DHT22;32497;48.936;9.270;2022-07-21T06:33:56;21.50;83.60
46752;DHT22;32497;48.936;9.270;2022-07-21T06:38:58;22.30;81.00
46752;DHT22;32497;48.936;9.270;2022-07-21T06:43:59;22.20;81.10
46752;DHT22;32497;48.936;9.270;2022-07-21T06:49:01;22.00;82.50
46752;DHT22;32497;48.936;9.270;2022-07-21T06:54:03;23.50;74.20
46752;DHT22;32497;48.936;9.270;2022-07-21T06:59:04;24.00;73.90
46752;DHT22;32497;48.936;9.270;2022-07-21T07:04:05;23.90;74.40
46752;DHT22;32497;48.936;9.270;2022-07-21T07:09:07;23.40;74.90
46752;DHT22;32497;48.936;9.270;2022-07-21T07:14:08;24.00;72.70
46752;DHT22;32497;48.936;9.270;2022-07-21T07:19:09;24.40;69.80
46752;DHT22;32497;48.936;9.270;2022-07-21T07:24:12;24.70;68.10
46752;DHT22;32497;48.936;9.270;2022-07-21T07:29:13;25.10;65.40
46752;DHT22;32497;48.936;9.270;2022-07-21T07:34:14;25.10;69.30
46752;DHT22;32497;48.936;9.270;2022-07-21T07:39:16;25.00;65.10
46752;DHT22;32497;48.936;9.270;2022-07-21T07:44:17;24.80;63.60
46752;DHT22;32497;48.936;9.270;2022-07-21T07:49:18;24.50;66.00
46752;DHT22;32497;48.936;9.270;2022-07-21T07:54:21;25.00;63.00
46752;DHT22;32497;48.936;9.270;2022-07-21T07:59:22;24.70;61.70
46752;DHT22;32497;48.936;9.270;2022-07-21T08:04:23;25.00;60.40
46752;DHT22;32497;48.936;9.270;2022-07-21T08:09:25;26.30;57.50
46752;DHT22;32497;48.936;9.270;2022-07-21T08:14:26;26.00;58.70
46752;DHT22;32497;48.936;9.270;2022-07-21T08:19:27;26.10;58.10
46752;DHT22;32497;48.936;9.270;2022-07-21T08:24:30;25.90;59.00
46752;DHT22;32497;48.936;9.270;2022-07-21T08:29:31;25.30;60.20
46752;DHT22;32497;48.936;9.270;2022-07-21T08:34:32;26.20;55.00
46752;DHT22;32497;48.936;9.270;2022-07-21T08:39:34;27.10;54.60
46752;DHT22;32497;48.936;9.270;2022-07-21T08:44:35;26.60;53.40
46752;DHT22;32497;48.936;9.270;2022-07-21T08:49:36;25.90;57.70
46752;DHT22;32497;48.936;9.270;2022-07-21T08:54:39;25.90;58.90
46752;DHT22;32497;48.936;9.270;2022-07-21T08:59:40;25.20;60.90
46752;DHT22;32497;48.936;9.270;2022-07-21T09:04:41;24.90;58.70
46752;DHT22;32497;48.936;9.270;2022-07-21T09:09:54;25.40;56.60
46752;DHT22;32497;48.936;9.270;2022-07-21T09:15:13;26.00;57.80
46752;DHT22;32497;48.936;9.270;2022-07-21T09:20:22;26.50;55.80
46752;DHT22;32497;48.936;9.270;2022-07-21T09:25:38;27.60;53.10
46752;DHT22;32497;48.936;9.270;2022-07-21T09:30:55;28.60;48.30
46752;DHT22;32497;48.936;9.270;2022-07-21T09:36:00;28.50;47.10
46752;DHT22;32497;48.936;9.270;2022-07-21T09:41:08;27.20;51.20
46752;DHT22;32497;48.936;9.270;2022-07-21T09:46:13;28.70;44.90
46752;DHT22;32497;48.936;9.270;2022-07-21T09:51:23;28.20;51.40
46752;DHT22;32497;48.936;9.270;2022-07-21T09:56:28;26.80;54.60
46752;DHT22;32497;48.936;9.270;2022-07-21T10:01:29;26.40;53.80
46752;DHT22;32497;48.936;9.270;2022-07-21T10:06:33;25.30;56.20
46752;DHT22;32497;48.936;9.270;2022-07-21T10:11:39;26.80;51.30
46752;DHT22;32497;48.936;9.270;2022-07-21T10:16:41;26.50;51.30
46752;DHT22;32497;48.936;9.270;2022-07-21T10:21:46;26.20;51.40
46752;DHT22;32497;48.936;9.270;2022-07-21T10:27:03;26.50;52.70
46752;DHT22;32497;48.936;9.270;2022-07-21T10:32:09;26.30;54.40
46752;DHT22;32497;48.936;9.270;2022-07-21T10:37:14;26.70;52.00
46752;DHT22;32497;48.936;9.270;2022-07-21T10:42:37;27.50;50.60
46752;DHT22;32497;48.936;9.270;2022-07-21T10:47:38;26.60;50.20
46752;DHT22;32497;48.936;9.270;2022-07-21T10:52:57;26.80;50.80
46752;DHT22;32497;48.936;9.270;2022-07-21T10:58:14;27.60;48.90
46752;DHT22;32497;48.936;9.270;2022-07-21T11:03:22;27.20;47.00
46752;DHT22;32497;48.936;9.270;2022-07-21T11:08:30;27.20;47.80
46752;DHT22;32497;48.936;9.270;2022-07-21T11:14:03;27.40;45.00
46752;DHT22;32497;48.936;9.270;2022-07-21T11:19:04;27.70;49.30
46752;DHT22;32497;48.936;9.270;2022-07-21T11:24:06;28.00;46.00
46752;DHT22;32497;48.936;9.270;2022-07-21T11:29:08;28.00;43.90
46752;DHT22;32497;48.936;9.270;2022-07-21T11:34:09;28.90;49.70
46752;DHT22;32497;48.936;9.270;2022-07-21T11:39:11;29.20;45.00
46752;DHT22;32497;48.936;9.270;2022-07-21T11:44:22;28.40;44.60
46752;DHT22;32497;48.936;9.270;2022-07-21T11:49:24;28.20;42.30
46752;DHT22;32497;48.936;9.270;2022-07-21T11:54:30;27.80;44.70
46752;DHT22;32497;48.936;9.270;2022-07-21T11:59:33;28.70;42.60
46752;DHT22;32497;48.936;9.270;2022-07-21T12:04:40;28.20;42.80
46752;DHT22;32497;48.936;9.270;2022-07-21T12:09:42;27.80;46.10
46752;DHT22;32497;48.936;9.270;2022-07-21T12:14:49;28.00;45.80
46752;DHT22;32497;48.936;9.270;2022-07-21T12:19:51;28.70;44.80
46752;DHT22;32497;48.936;9.270;2022-07-21T12:24:56;29.40;44.10
46752;DHT22;32497;48.936;9.270;2022-07-21T12:29:58;29.50;42.40
46752;DHT22;32497;48.936;9.270;2022-07-21T12:35:00;29.70;44.90
46752;DHT22;32497;48.936;9.270;2022-07-21T12:40:02;28.90;43.50
46752;DHT22;32497;48.936;9.270;2022-07-21T12:45:14;29.20;46.40
46752;DHT22;32497;48.936;9.270;2022-07-21T12:50:16;30.30;38.50
46752;DHT22;32497;48.936;9.270;2022-07-21T12:55:17;30.70;38.70
46752;DHT22;32497;48.936;9.270;2022-07-21T13:00:19;30.90;40.40
46752;DHT22;32497;48.936;9.270;2022-07-21T13:05:20;31.30;36.80
46752;DHT22;32497;48.936;9.270;2022-07-21T13:10:22;30.80;37.20
46752;DHT22;32497;48.936;9.270;2022-07-21T13:15:24;31.00;38.10
46752;DHT22;32497;48.936;9.270;2022-07-21T13:20:25;31.30;38.60
46752;DHT22;32497;48.936;9.270;2022-07-21T13:25:26;31.20;36.40
46752;DHT22;32497;48.936;9.270;2022-07-21T13:30:29;30.50;36.40
46752;DHT22;32497;48.936;9.270;2022-07-21T13:35:30;30.50;38.20
46752;DHT22;32497;48.936;9.270;2022-07-21T13:40:31;30.80;39.90
46752;DHT22;32497;48.936;9.270;2022-07-21T13:45:33;29.80;37.20
46752;DHT22;32497;48.936;9.270;2022-07-21T13:50:34;29.80;38.50
46752;DHT22;32497;48.936;9.270;2022-07-21T13:55:35;30.40;36.80
46752;DHT22;32497;48.936;9.270;2022-07-21T14:00:38;30.10;36.80
46752;DHT22;32497;48.936;9.270;2022-07-21T14:05:39;30.40;37.70
46752;DHT22;32497;48.936;9.270;2022-07-21T14:10:42;30.70;35.90
46752;DHT22;32497;48.936;9.270;2022-07-21T14:15:44;31.20;35.80
46752;DHT22;32497;48.936;9.270;2022-07-21T14:20:45;31.10;35.70
46752;DHT22;32497;48.936;9.270;2022-07-21T14:25:46;30.50;35.60
46752;DHT22;32497;48.936;9.270;2022-07-21T14:30:49;30.90;34.10
46752;DHT22;32497;48.936;9.270;2022-07-21T14:35:50;31.30;34.70
46752;DHT22;32497;48.936;9.270;2022-07-21T14:40:51;31.10;34.40
46752;DHT22;32497;48.936;9.270;2022-07-21T14:45:53;31.20;35.20
46752;DHT22;32497;48.936;9.270;2022-07-21T14:50:54;30.80;37.30
46752;DHT22;32497;48.936;9.270;2022-07-21T14:55:55;31.10;35.60
46752;DHT22;32497;48.936;9.270;2022-07-21T15:00:58;31.60;36.50
46752;DHT22;32497;48.936;9.270;2022-07-21T15:05:59;31.00;34.50
46752;DHT22;32497;48.936;9.270;2022-07-21T15:11:00;30.50;37.00
46752;DHT22;32497;48.936;9.270;2022-07-21T15:16:03;30.40;38.50
46752;DHT22;32497;48.936;9.270;2022-07-21T15:21:04;31.20;38.10
46752;DHT22;32497;48.936;9.270;2022-07-21T15:26:05;31.70;38.00
46752;DHT22;32497;48.936;9.270;2022-07-21T15:31:07;31.80;35.90
46752;DHT22;32497;48.936;9.270;2022-07-21T15:36:09;31.70;33.40
46752;DHT22;32497;48.936;9.270;2022-07-21T15:41:10;31.10;35.50
46752;DHT22;32497;48.936;9.270;2022-07-21T15:46:12;31.00;34.80
46752;DHT22;32497;48.936;9.270;2022-07-21T15:51:13;31.20;33.90
46752;DHT22;32497;48.936;9.270;2022-07-21T15:56:17;30.70;34.80
46752;DHT22;32497;48.936;9.270;2022-07-21T16:01:20;30.40;36.50
46752;DHT22;32497;48.936;9.270;2022-07-21T16:06:21;30.60;36.40
46752;DHT22;32497;48.936;9.270;2022-07-21T16:11:22;30.70;36.00
46752;DHT22;32497;48.936;9.270;2022-07-21T16:16:24;30.90;36.00
46752;DHT22;32497;48.936;9.270;2022-07-21T16:21:25;30.50;36.20
46752;DHT22;32497;48.936;9.270;2022-07-21T16:26:27;30.60;35.40
46752;DHT22;32497;48.936;9.270;2022-07-21T16:31:29;30.50;39.00
46752;DHT22;32497;48.936;9.270;2022-07-21T16:36:31;30.20;36.00
46752;DHT22;32497;48.936;9.270;2022-07-21T16:41:32;30.00;37.60
46752;DHT22;32497;48.936;9.270;2022-07-21T16:46:34;29.90;36.90
46752;DHT22;32497;48.936;9.270;2022-07-21T16:51:35;29.40;36.80
46752;DHT22;32497;48.936;9.270;2022-07-21T16:56:37;29.20;38.40
46752;DHT22;32497;48.936;9.270;2022-07-21T17:01:39;29.20;37.90
46752;DHT22;32497;48.936;9.270;2022-07-21T17:06:40;29.00;39.20
46752;DHT22;32497;48.936;9.270;2022-07-21T17:11:41;28.90;38.80
46752;DHT22;32497;48.936;9.270;2022-07-21T17:16:43;28.70;39.30
46752;DHT22;32497;48.936;9.270;2022-07-21T17:21:44;28.60;39.20
46752;DHT22;32497;48.936;9.270;2022-07-21T17:26:45;28.40;40.20
46752;DHT22;32497;48.936;9.270;2022-07-21T17:31:48;28.00;41.70
46752;DHT22;32497;48.936;9.270;2022-07-21T17:36:49;27.90;41.70
46752;DHT22;32497;48.936;9.270;2022-07-21T17:41:50;27.80;41.70
46752;DHT22;32497;48.936;9.270;2022-07-21T17:46:52;27.50;41.60
46752;DHT22;32497;48.936;9.270;2022-07-21T17:51:53;27.40;41.70
46752;DHT22;32497;48.936;9.270;2022-07-21T17:56:54;27.40;42.60
46752;DHT22;32497;48.936;9.270;2022-07-21T18:01:56;27.50;43.20
46752;DHT22;32497;48.936;9.270;2022-07-21T18:06:57;27.40;44.00
46752;DHT22;32497;48.936;9.270;2022-07-21T18:11:58;27.10;44.30
46752;DHT22;32497;48.936;9.270;2022-07-21T18:17:01;26.80;43.80
46752;DHT22;32497;48.936;9.270;2022-07-21T18:22:02;26.70;44.90
46752;DHT22;32497;48.936;9.270;2022-07-21T18:27:03;26.40;45.40
46752;DHT22;32497;48.936;9.270;2022-07-21T18:32:06;26.20;47.40
46752;DHT22;32497;48.936;9.270;2022-07-21T18:37:08;26.10;47.40
46752;DHT22;32497;48.936;9.270;2022-07-21T18:42:09;25.90;47.40
46752;DHT22;32497;48.936;9.270;2022-07-21T18:47:11;25.70;46.80
46752;DHT22;32497;48.936;9.270;2022-07-21T18:52:12;25.60;47.90
46752;DHT22;32497;48.936;9.270;2022-07-21T18:57:13;25.50;47.80
46752;DHT22;32497;48.936;9.270;2022-07-21T19:02:15;25.40;47.70
46752;DHT22;32497;48.936;9.270;2022-07-21T19:07:16;25.30;48.50
46752;DHT22;32497;48.936;9.270;2022-07-21T19:12:17;25.10;48.60
46752;DHT22;32497;48.936;9.270;2022-07-21T19:17:20;25.00;49.10
46752;DHT22;32497;48.936;9.270;2022-07-21T19:22:21;25.00;49.80
46752;DHT22;32497;48.936;9.270;2022-07-21T19:27:22;24.80;52.00
46752;DHT22;32497;48.936;9.270;2022-07-21T19:32:25;24.80;52.60
46752;DHT22;32497;48.936;9.270;2022-07-21T19:37:26;24.70;53.00
46752;DHT22;32497;48.936;9.270;2022-07-21T19:42:27;24.60;53.50
46752;DHT22;32497;48.936;9.270;2022-07-21T19:47:29;24.60;53.20
46752;DHT22;32497;48.936;9.270;2022-07-21T19:52:30;24.40;52.70
46752;DHT22;32497;48.936;9.270;2022-07-21T19:57:31;24.40;53.50
46752;DHT22;32497;48.936;9.270;2022-07-21T20:02:33;24.20;53.00
46752;DHT22;32497;48.936;9.270;2022-07-21T20:07:35;23.90;53.00
46752;DHT22;32497;48.936;9.270;2022-07-21T20:12:37;23.80;55.40
46752;DHT22;32497;48.936;9.270;2022-07-21T20:17:40;23.60;55.80
46752;DHT22;32497;48.936;9.270;2022-07-21T20:22:41;23.30;56.80
46752;DHT22;32497;48.936;9.270;2022-07-21T20:27:42;23.00;58.20
46752;DHT22;32497;48.936;9.270;2022-07-21T20:32:45;22.70;60.00
46752;DHT22;32497;48.936;9.270;2022-07-21T20:37:47;22.60;59.10
46752;DHT22;32497;48.936;9.270;2022-07-21T20:42:48;22.40;60.30
46752;DHT22;32497;48.936;9.270;2022-07-21T20:47:51;22.10;60.60
46752;DHT22;32497;48.936;9.270;2022-07-21T20:52:52;22.00;60.30
46752;DHT22;32497;48.936;9.270;2022-07-21T20:57:53;22.00;60.10
46752;DHT22;32497;48.936;9.270;2022-07-21T21:02:55;22.00;60.10
46752;DHT22;32497;48.936;9.270;2022-07-21T21:07:56;22.00;59.80
46752;DHT22;32497;48.936;9.270;2022-07-21T21:12:57;21.80;60.50
46752;DHT22;32497;48.936;9.270;2022-07-21T21:18:00;21.80;61.20
46752;DHT22;32497;48.936;9.270;2022-07-21T21:23:01;21.70;62.00
46752;DHT22;32497;48.936;9.270;2022-07-21T21:28:02;21.50;62.60
46752;DHT22;32497;48.936;9.270;2022-07-21T21:33:05;21.50;62.70
46752;DHT22;32497;48.936;9.270;2022-07-21T21:38:06;21.40;62.90
46752;DHT22;32497;48.936;9.270;2022-07-21T21:43:07;21.30;63.20
46752;DHT22;32497;48.936;9.270;2022-07-21T21:48:09;21.30;63.40
46752;DHT22;32497;48.936;9.270;2022-07-21T21:53:10;21.30;63.10
46752;DHT22;32497;48.936;9.270;2022-07-21T21:58:11;21.30;63.30
46752;DHT22;32497;48.936;9.270;2022-07-21T22:03:13;21.20;64.70
46752;DHT22;32497;48.936;9.270;2022-07-21T22:08:15;21.10;63.90
46752;DHT22;32497;48.936;9.270;2022-07-21T22:13:16;21.10;64.30
46752;DHT22;32497;48.936;9.270;2022-07-21T22:18:18;21.00;64.30
46752;DHT22;32497;48.936;9.270;2022-07-21T22:23:19;21.00;65.00
46752;DHT22;32497;48.936;9.270;2022-07-21T22:28:20;20.90;64.60
46752;DHT22;32497;48.936;9.270;2022-07-21T22:33:22;20.70;67.10
46752;DHT22;32497;48.936;9.270;2022-07-21T22:38:23;20.50;68.20
46752;DHT22;32497;48.936;9.270;2022-07-21T22:43:24;20.60;68.70
46752;DHT22;32497;48.936;9.270;2022-07-21T22:48:27;20.50;68.80
46752;DHT22;32497;48.936;9.270;2022-07-21T22:53:28;20.40;69.40
46752;DHT22;32497;48.936;9.270;2022-07-21T22:58:29;20.40;69.80
46752;DHT22;32497;48.936;9.270;2022-07-21T23:03:31;20.40;69.90
46752;DHT22;32497;48.936;9.270;2022-07-21T23:08:32;20.40;70.30
46752;DHT22;32497;48.936;9.270;2022-07-21T23:13:33;20.30;70.20
46752;DHT22;32497;48.936;9.270;2022-07-21T23:18:36;20.20;70.90
46752;DHT22;32497;48.936;9.270;2022-07-21T23:23:37;20.10;69.80
46752;DHT22;32497;48.936;9.270;2022-07-21T23:28:38;20.20;71.80
46752;DHT22;32497;48.936;9.270;2022-07-21T23:33:40;20.20;71.40
46752;DHT22;32497;48.936;9.270;2022-07-21T23:38:41;20.00;72.40
46752;DHT22;32497;48.936;9.270;2022-07-21T23:43:42;20.00;72.00
46752;DHT22;32497;48.936;9.270;2022-07-21T23:48:44;20.00;71.90
46752;DHT22;32497;48.936;9.270;2022-07-21T23:53:45;20.00;72.30
46752;DHT22;32497;48.936;9.270;2022-07-21T23:58:47;19.90;72.50
